createdAt,value
2022-11-15T00:00:08.473Z,50.90
2022-11-15T00:01:08.379Z,52.29
2022-11-15T00:02:08.527Z,49.79
2022-11-15T00:03:08.331Z,51.87
2022-11-15T00:04:08.405Z,51.20
2022-11-15T00:05:08.321Z,50.85
2022-11-15T00:06:08.302Z,50.78
2022-11-15T00:07:08.353Z,50.91
2022-11-15T00:08:08.377Z,48.96
2022-11-15T00:09:08.348Z,49.68
2022-11-15T00:10:08.293Z,53.00
2022-11-15T00:11:08.395Z,53.32
2022-11-15T00:12:08.429Z,50.38
2022-11-15T00:13:08.345Z,48.95
2022-11-15T00:14:08.360Z,50.67
2022-11-15T00:15:08.391Z,51.70
2022-11-15T00:16:08.397Z,51.95
2022-11-15T00:17:08.326Z,53.33
2022-11-15T00:18:08.304Z,51.52
2022-11-15T00:19:08.303Z,53.08
2022-11-15T00:20:09.412Z,49.88
2022-11-15T00:21:08.333Z,50.55
2022-11-15T00:22:08.188Z,52.07
2022-11-15T00:23:08.219Z,50.56
2022-11-15T00:24:08.284Z,52.35
2022-11-15T00:25:08.219Z,53.22
2022-11-15T00:26:08.228Z,53.13
2022-11-15T00:27:09.167Z,50.59
2022-11-15T00:28:08.148Z,52.14
2022-11-15T00:29:08.217Z,55.88
2022-11-15T00:30:08.322Z,51.45
2022-11-15T00:31:08.479Z,48.05
2022-11-15T00:32:08.272Z,51.45
2022-11-15T00:33:08.210Z,53.72
2022-11-15T00:34:08.241Z,51.50
2022-11-15T00:35:08.188Z,54.01
2022-11-15T00:36:08.203Z,50.62
2022-11-15T00:37:08.221Z,51.04
2022-11-15T00:38:08.200Z,50.81
2022-11-15T00:39:08.181Z,49.43
2022-11-15T00:40:08.169Z,48.18
2022-11-15T00:41:09.962Z,48.94
2022-11-15T00:42:09.135Z,50.34
2022-11-15T00:43:08.139Z,49.20
2022-11-15T00:44:08.034Z,49.93
2022-11-15T00:45:08.029Z,49.69
2022-11-15T00:46:08.700Z,52.59
2022-11-15T00:47:08.087Z,52.48
2022-11-15T00:48:08.137Z,52.22
2022-11-15T00:49:08.157Z,53.17
2022-11-15T00:50:10.715Z,51.28
2022-11-15T00:51:08.979Z,48.12
2022-11-15T00:52:08.102Z,48.20
2022-11-15T00:53:08.176Z,50.75
2022-11-15T00:54:08.039Z,52.73
2022-11-15T00:55:08.035Z,50.45
2022-11-15T00:56:08.058Z,47.95
2022-11-15T00:57:08.057Z,50.52
2022-11-15T00:58:08.105Z,48.44
2022-11-15T00:59:08.047Z,47.64
2022-11-15T01:00:08.023Z,47.82
2022-11-15T01:01:08.180Z,47.29
2022-11-15T01:02:07.863Z,48.64
2022-11-15T01:03:07.878Z,53.27
2022-11-15T01:04:07.934Z,52.54
2022-11-15T01:05:07.928Z,51.43
2022-11-15T01:06:07.891Z,55.50
2022-11-15T01:07:08.037Z,53.00
2022-11-15T01:08:07.971Z,48.38
2022-11-15T01:09:07.993Z,50.29
2022-11-15T01:10:08.003Z,54.97
2022-11-15T01:11:07.941Z,49.60
2022-11-15T01:12:08.909Z,51.30
2022-11-15T01:13:07.917Z,54.05
2022-11-15T01:14:08.080Z,53.18
2022-11-15T01:15:07.949Z,54.59
2022-11-15T01:16:07.927Z,54.24
2022-11-15T01:17:07.894Z,51.63
2022-11-15T01:18:07.858Z,49.15
2022-11-15T01:19:08.795Z,51.23
2022-11-15T01:20:07.859Z,50.15
2022-11-15T01:21:07.854Z,52.99
2022-11-15T01:22:07.891Z,49.38
2022-11-15T01:23:07.759Z,52.26
2022-11-15T01:24:07.774Z,50.63
2022-11-15T01:25:07.911Z,54.97
2022-11-15T01:26:07.815Z,52.20
2022-11-15T01:27:07.858Z,48.30
2022-11-15T01:28:07.858Z,47.47
2022-11-15T01:29:07.824Z,49.81
2022-11-15T01:30:07.916Z,48.12
2022-11-15T01:31:07.798Z,47.93
2022-11-15T01:32:07.776Z,49.79
2022-11-15T01:33:07.846Z,49.65
2022-11-15T01:34:07.798Z,50.53
2022-11-15T01:35:07.857Z,49.70
2022-11-15T01:36:08.083Z,48.36
2022-11-15T01:37:07.828Z,49.17
2022-11-15T01:38:08.217Z,48.98
2022-11-15T01:39:08.755Z,49.74
2022-11-15T01:40:07.679Z,48.90
2022-11-15T01:41:07.718Z,48.04
2022-11-15T01:42:07.634Z,49.66
2022-11-15T01:43:07.744Z,47.44
2022-11-15T01:44:07.622Z,53.02
2022-11-15T01:45:07.639Z,51.19
2022-11-15T01:46:07.789Z,49.24
2022-11-15T01:47:07.676Z,47.52
2022-11-15T01:48:07.669Z,52.19
2022-11-15T01:49:07.657Z,54.38
2022-11-15T01:50:07.648Z,50.32
2022-11-15T01:51:07.652Z,51.95
2022-11-15T01:52:07.662Z,47.65
2022-11-15T01:53:07.650Z,51.30
2022-11-15T01:54:07.730Z,54.15
2022-11-15T01:55:07.675Z,53.60
2022-11-15T01:56:07.675Z,50.96
2022-11-15T01:57:07.554Z,51.54
2022-11-15T01:58:07.539Z,52.47
2022-11-15T01:59:07.581Z,50.93
2022-11-15T02:00:07.543Z,50.41
2022-11-15T02:01:07.547Z,47.65
2022-11-15T02:02:07.519Z,47.83
2022-11-15T02:03:07.493Z,50.41
2022-11-15T02:04:07.574Z,51.26
2022-11-15T02:05:07.629Z,52.79
2022-11-15T02:06:07.569Z,51.53
2022-11-15T02:07:07.575Z,50.39
2022-11-15T02:08:07.542Z,50.06
2022-11-15T02:09:07.537Z,52.48
2022-11-15T02:10:07.523Z,51.18
2022-11-15T02:11:07.529Z,50.01
2022-11-15T02:12:07.562Z,50.61
2022-11-15T02:13:07.500Z,48.58
2022-11-15T02:14:07.541Z,50.92
2022-11-15T02:15:07.514Z,48.62
2022-11-15T02:16:07.453Z,48.23
2022-11-15T02:17:07.406Z,50.51
2022-11-15T02:18:07.391Z,52.49
2022-11-15T02:19:07.520Z,51.99
2022-11-15T02:20:08.412Z,51.24
2022-11-15T02:21:07.385Z,47.58
2022-11-15T02:22:07.435Z,48.47
2022-11-15T02:23:07.502Z,49.22
2022-11-15T02:24:07.443Z,55.40
2022-11-15T02:25:07.593Z,51.48
2022-11-15T02:26:07.388Z,51.77
2022-11-15T02:27:07.392Z,52.10
2022-11-15T02:28:07.441Z,47.27
2022-11-15T02:29:07.385Z,48.38
2022-11-15T02:30:07.454Z,50.48
2022-11-15T02:31:07.383Z,51.69
2022-11-15T02:32:07.399Z,48.69
2022-11-15T02:33:07.371Z,48.49
2022-11-15T02:34:07.370Z,51.46
2022-11-15T02:35:07.357Z,54.69
2022-11-15T02:36:39.489Z,53.89
2022-11-15T02:37:40.293Z,51.37
2022-11-15T02:38:40.273Z,49.64
2022-11-15T02:39:40.239Z,50.53
2022-11-15T02:40:40.226Z,49.16
2022-11-15T02:41:40.364Z,49.21
2022-11-15T02:42:40.435Z,51.56
2022-11-15T02:43:40.334Z,53.32
2022-11-15T02:44:39.285Z,51.46
2022-11-15T02:45:40.308Z,56.19
2022-11-15T02:46:40.680Z,53.78
2022-11-15T02:47:40.290Z,48.94
2022-11-15T02:48:07.166Z,48.50
2022-11-15T02:49:07.225Z,51.04
2022-11-15T02:50:07.268Z,50.79
2022-11-15T02:51:07.252Z,48.26
2022-11-15T02:52:07.255Z,47.11
2022-11-15T02:53:07.217Z,51.76
2022-11-15T02:54:08.222Z,51.39
2022-11-15T02:55:07.152Z,57.62
2022-11-15T02:56:07.101Z,50.26
2022-11-15T02:57:07.151Z,46.99
2022-11-15T02:58:07.116Z,47.49
2022-11-15T02:59:07.193Z,50.34
2022-11-15T03:00:07.180Z,50.89
2022-11-15T03:01:07.186Z,52.09
2022-11-15T03:02:08.140Z,53.87
2022-11-15T03:03:07.236Z,49.94
2022-11-15T03:04:07.157Z,55.14
2022-11-15T03:05:07.259Z,50.09
2022-11-15T03:06:07.140Z,52.09
2022-11-15T03:07:07.245Z,54.05
2022-11-15T03:08:07.326Z,54.91
2022-11-15T03:09:07.208Z,52.59
2022-11-15T03:10:39.123Z,50.24
2022-11-15T03:11:07.010Z,47.86
2022-11-15T03:12:07.108Z,51.06
2022-11-15T03:13:07.144Z,51.27
2022-11-15T03:14:07.084Z,53.08
2022-11-15T03:15:07.095Z,50.79
2022-11-15T03:16:07.060Z,47.36
2022-11-15T03:17:41.586Z,49.13
2022-11-15T03:18:08.005Z,52.22
2022-11-15T03:19:07.032Z,53.97
2022-11-15T03:20:06.917Z,54.61
2022-11-15T03:21:06.924Z,54.03
2022-11-15T03:22:06.893Z,55.04
2022-11-15T03:23:06.940Z,54.42
2022-11-15T03:24:06.958Z,53.98
2022-11-15T03:25:06.915Z,49.08
2022-11-15T03:26:06.917Z,48.89
2022-11-15T03:27:06.885Z,50.22
2022-11-15T03:28:06.876Z,50.95
2022-11-15T03:29:07.006Z,51.89
2022-11-15T03:30:06.991Z,52.26
2022-11-15T03:31:06.972Z,50.03
2022-11-15T03:32:07.019Z,51.69
2022-11-15T03:33:06.957Z,50.66
2022-11-15T03:34:06.970Z,51.60
2022-11-15T03:35:06.973Z,54.36
2022-11-15T03:36:06.940Z,54.62
2022-11-15T03:37:06.910Z,54.01
2022-11-15T03:38:06.921Z,53.16
2022-11-15T03:39:06.903Z,51.86
2022-11-15T03:40:06.948Z,51.93
2022-11-15T03:41:06.913Z,51.81
2022-11-15T03:42:06.894Z,51.06
2022-11-15T03:43:06.828Z,51.63
2022-11-15T03:44:06.858Z,49.09
2022-11-15T03:45:06.800Z,49.41
2022-11-15T03:46:06.844Z,52.05
2022-11-15T03:47:06.769Z,54.41
2022-11-15T03:48:06.818Z,55.45
2022-11-15T03:49:06.823Z,54.60
2022-11-15T03:50:06.836Z,54.91
2022-11-15T03:51:06.917Z,54.11
2022-11-15T03:52:06.801Z,52.74
2022-11-15T03:53:06.904Z,53.64
2022-11-15T03:54:06.834Z,54.38
2022-11-15T03:55:06.882Z,55.35
2022-11-15T03:56:06.743Z,54.56
2022-11-15T03:57:06.844Z,52.83
2022-11-15T03:58:06.783Z,52.86
2022-11-15T03:59:06.745Z,52.02
2022-11-15T04:00:06.775Z,51.79
2022-11-15T04:01:06.793Z,50.63
2022-11-15T04:02:06.684Z,54.31
2022-11-15T04:03:06.736Z,54.90
2022-11-15T04:04:06.628Z,54.94
2022-11-15T04:05:06.623Z,54.52
2022-11-15T04:06:06.725Z,54.28
2022-11-15T04:07:06.816Z,54.29
2022-11-15T04:08:06.714Z,54.93
2022-11-15T04:09:06.671Z,53.56
2022-11-15T04:10:06.754Z,53.80
2022-11-15T04:11:06.688Z,55.58
2022-11-15T04:12:06.661Z,56.90
2022-11-15T04:13:06.690Z,51.85
2022-11-15T04:14:06.701Z,54.05
2022-11-15T04:15:06.687Z,54.71
2022-11-15T04:16:06.727Z,57.03
2022-11-15T04:17:06.590Z,56.82
2022-11-15T04:18:06.666Z,53.99
2022-11-15T04:19:06.650Z,55.16
2022-11-15T04:20:06.498Z,56.01
2022-11-15T04:21:06.496Z,59.98
2022-11-15T04:22:07.428Z,56.45
2022-11-15T04:23:06.534Z,58.89
2022-11-15T04:24:06.566Z,59.45
2022-11-15T04:25:06.494Z,61.70
2022-11-15T04:26:06.471Z,55.27
2022-11-15T04:27:06.499Z,56.69
2022-11-15T04:28:06.577Z,56.75
2022-11-15T04:29:06.574Z,55.17
2022-11-15T04:30:06.529Z,55.52
2022-11-15T04:31:06.537Z,55.82
2022-11-15T04:32:06.497Z,55.98
2022-11-15T04:33:06.497Z,55.35
2022-11-15T04:34:06.539Z,56.07
2022-11-15T04:35:06.571Z,58.53
2022-11-15T04:36:06.463Z,57.65
2022-11-15T04:37:06.525Z,56.93
2022-11-15T04:38:06.455Z,56.41
2022-11-15T04:39:06.522Z,58.08
2022-11-15T04:40:06.921Z,56.98
2022-11-15T04:41:06.447Z,56.24
2022-11-15T04:42:06.361Z,58.17
2022-11-15T04:43:06.384Z,57.03
2022-11-15T04:44:06.366Z,58.27
2022-11-15T04:45:06.538Z,59.17
2022-11-15T04:46:06.371Z,57.90
2022-11-15T04:47:06.335Z,57.96
2022-11-15T04:48:06.327Z,59.74
2022-11-15T04:49:06.324Z,58.10
2022-11-15T04:50:06.385Z,58.20
2022-11-15T04:51:06.406Z,58.49
2022-11-15T04:52:06.343Z,57.72
2022-11-15T04:53:06.349Z,57.41
2022-11-15T04:54:06.339Z,58.81
2022-11-15T04:55:08.317Z,59.17
2022-11-15T04:56:07.375Z,59.13
2022-11-15T04:57:06.397Z,57.71
2022-11-15T04:58:06.407Z,56.47
2022-11-15T04:59:06.336Z,58.61
2022-11-15T05:00:06.378Z,57.98
2022-11-15T05:01:06.276Z,58.02
2022-11-15T05:02:06.263Z,56.69
2022-11-15T05:03:06.234Z,58.95
2022-11-15T05:04:06.293Z,57.58
2022-11-15T05:05:06.231Z,58.87
2022-11-15T05:06:06.192Z,58.49
2022-11-15T05:07:06.246Z,58.50
2022-11-15T05:08:06.140Z,57.12
2022-11-15T05:09:06.269Z,57.30
2022-11-15T05:10:06.254Z,57.70
2022-11-15T05:11:06.249Z,58.77
2022-11-15T05:12:06.266Z,58.35
2022-11-15T05:13:06.244Z,58.75
2022-11-15T05:14:06.206Z,58.98
2022-11-15T05:15:06.247Z,58.18
2022-11-15T05:16:06.193Z,57.95
2022-11-15T05:17:06.222Z,58.40
2022-11-15T05:18:06.228Z,57.37
2022-11-15T05:19:06.239Z,59.30
2022-11-15T05:20:06.143Z,57.75
2022-11-15T05:21:06.262Z,59.09
2022-11-15T05:22:06.073Z,58.60
2022-11-15T05:23:06.138Z,59.35
2022-11-15T05:24:06.064Z,59.69
2022-11-15T05:25:06.054Z,59.65
2022-11-15T05:26:09.142Z,59.30
2022-11-15T05:27:07.196Z,59.00
2022-11-15T05:28:06.093Z,59.28
2022-11-15T05:29:06.112Z,59.49
2022-11-15T05:30:06.090Z,58.77
2022-11-15T05:31:06.058Z,59.54
2022-11-15T05:32:06.079Z,59.04
2022-11-15T05:33:06.112Z,58.75
2022-11-15T05:34:06.166Z,57.54
2022-11-15T05:35:06.026Z,58.31
2022-11-15T05:36:06.078Z,59.06
2022-11-15T05:37:05.955Z,60.02
2022-11-15T05:38:05.985Z,61.35
2022-11-15T05:39:06.049Z,60.75
2022-11-15T05:40:05.993Z,61.10
2022-11-15T05:41:05.922Z,60.45
2022-11-15T05:42:05.910Z,60.55
2022-11-15T05:43:05.947Z,59.97
2022-11-15T05:44:06.054Z,59.01
2022-11-15T05:45:06.120Z,59.19
2022-11-15T05:46:05.985Z,58.09
2022-11-15T05:47:05.984Z,58.31
2022-11-15T05:48:05.970Z,60.16
2022-11-15T05:49:05.978Z,58.55
2022-11-15T05:50:05.974Z,58.75
2022-11-15T05:51:06.054Z,58.92
2022-11-15T05:52:05.904Z,58.47
2022-11-15T05:53:05.937Z,58.39
2022-11-15T05:54:05.929Z,58.42
2022-11-15T05:55:05.900Z,57.89
2022-11-15T05:56:05.938Z,57.86
2022-11-15T05:57:05.897Z,55.54
2022-11-15T05:58:05.882Z,56.29
2022-11-15T05:59:05.898Z,57.92
2022-11-15T06:00:05.851Z,59.11
2022-11-15T06:01:05.760Z,58.75
2022-11-15T06:02:05.953Z,58.76
2022-11-15T06:03:05.853Z,66.24
2022-11-15T06:04:05.887Z,61.04
2022-11-15T06:05:05.768Z,57.88
2022-11-15T06:06:05.830Z,57.72
2022-11-15T06:07:05.965Z,57.75
2022-11-15T06:08:05.828Z,57.27
2022-11-15T06:09:05.796Z,57.44
2022-11-15T06:10:05.817Z,57.82
2022-11-15T06:11:05.792Z,58.02
2022-11-15T06:12:05.810Z,57.74
2022-11-15T06:13:05.820Z,56.39
2022-11-15T06:14:05.748Z,57.30
2022-11-15T06:15:05.752Z,57.29
2022-11-15T06:16:05.766Z,56.92
2022-11-15T06:17:11.018Z,57.68
2022-11-15T06:18:07.778Z,56.45
2022-11-15T06:19:05.675Z,57.36
2022-11-15T06:20:05.642Z,56.99
2022-11-15T06:21:05.644Z,57.03
2022-11-15T06:22:05.634Z,56.08
2022-11-15T06:23:05.834Z,55.90
2022-11-15T06:27:03.991Z,55.74
2022-11-15T06:28:03.971Z,55.78
2022-11-15T06:29:03.938Z,56.68
2022-11-15T06:30:04.037Z,56.39
2022-11-15T06:31:03.981Z,57.93
2022-11-15T06:32:03.936Z,56.84
2022-11-15T06:33:04.000Z,56.52
2022-11-15T06:34:03.981Z,56.92
2022-11-15T06:35:03.901Z,58.07
2022-11-15T06:36:03.866Z,59.71
2022-11-15T06:37:03.881Z,59.47
2022-11-15T06:38:03.941Z,57.88
2022-11-15T06:39:03.880Z,59.78
2022-11-15T06:40:03.871Z,60.17
2022-11-15T06:41:03.783Z,63.01
2022-11-15T06:42:03.793Z,63.83
2022-11-15T06:43:03.815Z,60.94
2022-11-15T06:44:03.709Z,59.79
2022-11-15T06:45:03.845Z,59.83
2022-11-15T06:46:03.766Z,59.99
2022-11-15T06:47:03.751Z,59.47
2022-11-15T06:48:03.726Z,61.07
2022-11-15T06:49:08.352Z,61.38
2022-11-15T06:50:05.935Z,61.01
2022-11-15T06:51:03.797Z,61.48
2022-11-15T06:52:03.829Z,60.79
2022-11-15T06:53:03.779Z,61.34
2022-11-15T06:54:03.854Z,61.60
2022-11-15T06:55:03.842Z,62.31
2022-11-15T06:56:03.748Z,62.69
2022-11-15T06:57:03.740Z,62.67
2022-11-15T06:58:03.752Z,63.67
2022-11-15T06:59:03.711Z,61.95
2022-11-15T07:00:03.758Z,62.10
2022-11-15T07:01:03.816Z,59.80
2022-11-15T07:02:03.614Z,61.45
2022-11-15T07:03:03.772Z,61.37
2022-11-15T07:04:03.618Z,59.22
2022-11-15T07:05:03.650Z,61.18
2022-11-15T07:06:07.407Z,61.54
2022-11-15T07:07:04.773Z,62.13
2022-11-15T07:08:03.589Z,60.77
2022-11-15T07:09:03.653Z,61.99
2022-11-15T07:10:03.670Z,60.73
2022-11-15T07:11:03.668Z,62.03
2022-11-15T07:12:07.646Z,63.81
2022-11-15T07:13:04.687Z,64.52
2022-11-15T07:14:03.624Z,63.84
2022-11-15T07:15:03.661Z,63.06
2022-11-15T07:16:03.595Z,63.23
2022-11-15T07:17:03.693Z,64.20
2022-11-15T07:18:03.646Z,65.47
2022-11-15T07:19:03.682Z,65.20
2022-11-15T07:20:03.556Z,62.58
2022-11-15T07:21:03.568Z,63.19
2022-11-15T07:22:03.458Z,64.99
2022-11-15T07:23:03.479Z,64.90
2022-11-15T07:24:03.446Z,65.46
2022-11-15T07:25:03.574Z,64.32
2022-11-15T07:26:03.484Z,64.49
2022-11-15T07:27:03.586Z,63.21
2022-11-15T07:28:03.616Z,63.24
2022-11-15T07:29:03.512Z,63.94
2022-11-15T07:30:03.623Z,63.21
2022-11-15T07:31:03.492Z,60.91
2022-11-15T07:32:03.507Z,62.35
2022-11-15T07:33:03.464Z,63.34
2022-11-15T07:34:03.560Z,63.26
2022-11-15T07:35:03.454Z,61.90
2022-11-15T07:36:03.477Z,63.42
2022-11-15T07:37:03.480Z,62.57
2022-11-15T07:38:03.490Z,63.57
2022-11-15T07:39:03.447Z,63.59
2022-11-15T07:40:03.338Z,61.94
2022-11-15T07:41:03.386Z,62.77
2022-11-15T07:42:03.293Z,63.15
2022-11-15T07:43:03.335Z,63.64
2022-11-15T07:44:03.317Z,63.95
2022-11-15T07:45:03.354Z,64.41
2022-11-15T07:46:03.297Z,63.63
2022-11-15T07:47:03.270Z,62.21
2022-11-15T07:48:03.299Z,62.36
2022-11-15T07:49:03.308Z,63.05
2022-11-15T07:50:03.465Z,62.98
2022-11-15T07:51:03.353Z,61.71
2022-11-15T07:52:03.336Z,60.50
2022-11-15T07:53:03.322Z,61.68
2022-11-15T07:54:03.333Z,62.29
2022-11-15T07:55:03.348Z,62.28
2022-11-15T07:56:03.460Z,61.13
2022-11-15T07:57:07.252Z,60.26
2022-11-15T07:58:04.320Z,62.10
2022-11-15T07:59:03.364Z,60.65
2022-11-15T08:00:03.331Z,59.47
2022-11-15T08:01:03.370Z,61.21
2022-11-15T08:02:03.397Z,58.92
2022-11-15T08:03:03.219Z,62.04
2022-11-15T08:04:03.254Z,59.41
2022-11-15T08:05:03.204Z,59.69
2022-11-15T08:06:03.159Z,58.81
2022-11-15T08:07:03.282Z,61.71
2022-11-15T08:08:03.159Z,60.08
2022-11-15T08:09:03.291Z,59.48
2022-11-15T08:10:03.239Z,59.72
2022-11-15T08:11:03.236Z,61.25
2022-11-15T08:12:03.288Z,60.26
2022-11-15T08:13:03.335Z,59.58
2022-11-15T08:14:03.601Z,59.55
2022-11-15T08:15:03.194Z,61.97
2022-11-15T08:16:03.340Z,60.54
2022-11-15T08:17:03.220Z,59.78
2022-11-15T08:18:03.293Z,58.18
2022-11-15T08:32:50.194Z,61.09
2022-11-15T08:33:18.147Z,57.02
2022-11-15T08:34:18.100Z,58.18
2022-11-15T08:35:18.166Z,62.01
2022-11-15T08:36:18.315Z,61.44
2022-11-15T08:37:18.150Z,60.98
2022-11-15T08:38:18.139Z,61.46
2022-11-15T08:39:18.207Z,59.51
2022-11-15T08:40:18.305Z,55.72
2022-11-15T08:41:18.193Z,58.42
2022-11-15T08:42:19.980Z,59.03
2022-11-15T08:43:19.171Z,59.45
2022-11-15T08:44:18.221Z,57.20
2022-11-15T08:45:18.149Z,57.03
2022-11-15T08:46:18.197Z,59.68
2022-11-15T08:47:18.165Z,58.72
2022-11-15T08:48:18.092Z,58.14
2022-11-15T08:49:18.093Z,56.21
2022-11-15T08:50:18.126Z,55.68
2022-11-15T08:51:18.140Z,56.26
2022-11-15T08:52:18.161Z,57.80
2022-11-15T08:53:18.155Z,58.66
2022-11-15T08:54:18.081Z,58.64
2022-11-15T08:55:18.056Z,57.91
2022-11-15T08:56:17.995Z,56.85
2022-11-15T08:57:17.958Z,58.17
2022-11-15T08:58:18.014Z,56.96
2022-11-15T08:59:18.096Z,55.61
2022-11-15T09:00:17.937Z,59.18
2022-11-15T09:01:18.681Z,56.73
2022-11-15T09:02:18.934Z,58.87
2022-11-15T09:03:17.927Z,58.89
2022-11-15T09:04:18.007Z,56.52
2022-11-15T09:05:17.997Z,59.22
2022-11-15T09:06:17.987Z,56.86
2022-11-15T09:07:18.027Z,58.03
2022-11-15T09:08:47.041Z,57.60
2022-11-15T09:09:19.941Z,57.08
2022-11-15T09:10:17.995Z,55.94
2022-11-15T09:11:17.949Z,55.96
2022-11-15T09:12:17.954Z,58.91
2022-11-15T09:13:17.958Z,57.03
2022-11-15T09:14:18.025Z,61.70
2022-11-15T09:15:17.896Z,62.64
2022-11-15T09:16:17.929Z,61.74
2022-11-15T09:17:23.194Z,61.08
2022-11-15T09:18:22.240Z,56.16
2022-11-15T09:19:17.948Z,58.70
2022-11-15T09:20:17.989Z,56.46
2022-11-15T09:21:17.780Z,58.67
2022-11-15T09:22:17.756Z,56.30
2022-11-15T09:23:17.850Z,55.65
2022-11-15T09:24:17.933Z,57.52
2022-11-15T09:25:17.912Z,59.49
2022-11-15T09:26:17.998Z,58.82
2022-11-15T09:27:17.841Z,59.52
2022-11-15T09:28:17.852Z,57.72
2022-11-15T09:29:17.848Z,56.07
2022-11-15T09:30:17.835Z,56.60
2022-11-15T09:31:21.025Z,58.62
2022-11-15T09:32:18.873Z,58.88
2022-11-15T09:33:17.773Z,61.37
2022-11-15T09:34:17.830Z,57.13
2022-11-15T09:35:17.795Z,56.96
2022-11-15T09:36:17.835Z,57.16
2022-11-15T09:37:17.763Z,56.07
2022-11-15T09:38:17.814Z,57.71
2022-11-15T09:39:17.689Z,56.09
2022-11-15T09:40:17.669Z,52.20
2022-11-15T09:41:17.679Z,55.67
2022-11-15T09:42:17.809Z,56.77
2022-11-15T09:43:17.652Z,56.73
2022-11-15T09:44:21.170Z,65.20
2022-11-15T09:45:19.662Z,57.93
2022-11-15T09:46:17.735Z,59.53
2022-11-15T09:47:17.818Z,57.95
2022-11-15T09:48:17.682Z,55.77
2022-11-15T09:49:17.765Z,56.88
2022-11-15T09:50:17.661Z,55.70
2022-11-15T09:51:17.839Z,63.79
2022-11-15T09:52:17.699Z,64.87
2022-11-15T09:53:17.727Z,56.70
2022-11-15T09:55:19.622Z,57.18
2022-11-15T09:56:17.704Z,54.20
2022-11-15T09:57:17.625Z,63.08
2022-11-15T09:58:17.696Z,58.44
2022-11-15T09:59:17.700Z,55.99
2022-11-15T10:00:44.777Z,57.80
2022-11-15T10:01:19.543Z,57.79
2022-11-15T10:02:17.526Z,57.16
2022-11-15T10:03:17.527Z,56.38
2022-11-15T10:04:17.576Z,57.26
2022-11-15T10:05:17.505Z,56.46
2022-11-15T10:06:17.488Z,63.95
2022-11-15T10:07:17.583Z,57.25
2022-11-15T10:08:17.555Z,52.35
2022-11-15T10:09:22.565Z,55.92
2022-11-15T10:10:19.567Z,54.35
2022-11-15T10:12:19.452Z,61.78
2022-11-15T10:13:17.578Z,57.39
2022-11-15T10:14:17.724Z,56.42
2022-11-15T10:15:17.507Z,55.85
2022-11-15T10:16:17.487Z,57.01
2022-11-15T10:17:17.497Z,53.28
2022-11-15T10:18:17.500Z,52.02
2022-11-15T10:19:17.483Z,61.21
2022-11-15T10:20:17.497Z,57.25
2022-11-15T10:21:17.480Z,55.15
2022-11-15T10:22:17.499Z,56.75
2022-11-15T10:23:18.467Z,55.84
2022-11-15T10:24:17.471Z,55.51
2022-11-15T10:25:17.494Z,55.39
2022-11-15T10:26:17.429Z,56.46
2022-11-15T10:27:17.460Z,62.05
2022-11-15T10:28:17.499Z,56.15
2022-11-15T10:29:17.328Z,53.96
2022-11-15T10:30:17.346Z,58.84
2022-11-15T10:31:17.478Z,57.51
2022-11-15T10:32:17.377Z,56.43
2022-11-15T10:33:17.324Z,62.40
2022-11-15T10:34:17.370Z,58.39
2022-11-15T10:35:17.526Z,56.21
2022-11-15T10:36:17.421Z,55.13
2022-11-15T10:37:17.466Z,57.85
2022-11-15T10:38:17.492Z,56.36
2022-11-15T10:39:17.675Z,56.91
2022-11-15T10:40:17.373Z,64.76
2022-11-15T10:41:17.378Z,56.45
2022-11-15T10:42:18.051Z,55.33
2022-11-15T10:43:18.483Z,58.02
2022-11-15T10:44:17.340Z,57.97
2022-11-15T10:45:17.344Z,57.63
2022-11-15T10:46:44.477Z,57.84
2022-11-15T10:47:19.295Z,59.35
2022-11-15T10:48:17.319Z,54.52
2022-11-15T10:49:17.332Z,55.23
2022-11-15T10:50:17.304Z,56.51
2022-11-15T10:51:17.227Z,55.29
2022-11-15T10:52:17.216Z,56.91
2022-11-15T10:53:17.178Z,55.75
2022-11-15T10:54:21.003Z,56.30
2022-11-15T10:55:18.148Z,55.40
2022-11-15T10:56:17.147Z,61.94
2022-11-15T10:57:17.282Z,57.22
2022-11-15T10:58:17.286Z,56.28
2022-11-15T10:59:17.259Z,57.63
2022-11-15T11:00:17.320Z,56.99
2022-11-15T11:01:17.309Z,53.53
2022-11-15T11:02:17.111Z,54.95
2022-11-15T11:03:17.428Z,60.94
2022-11-15T11:04:17.237Z,56.36
2022-11-15T11:05:17.180Z,55.37
2022-11-15T11:06:17.320Z,54.96
2022-11-15T11:07:17.213Z,54.76
2022-11-15T11:08:17.172Z,56.97
2022-11-15T11:09:17.167Z,57.30
2022-11-15T11:10:44.237Z,59.61
2022-11-15T11:11:19.048Z,56.86
2022-11-15T11:12:17.099Z,56.83
2022-11-15T11:13:17.148Z,56.12
2022-11-15T11:14:17.147Z,54.78
2022-11-15T11:15:17.090Z,57.14
2022-11-15T11:16:17.208Z,57.68
2022-11-15T11:17:17.084Z,54.44
2022-11-15T11:18:16.984Z,54.81
2022-11-15T11:19:17.050Z,54.55
2022-11-15T11:20:17.052Z,58.38
2022-11-15T11:21:16.986Z,55.95
2022-11-15T11:22:17.182Z,58.16
2022-11-15T11:23:17.018Z,55.02
2022-11-15T11:24:17.073Z,54.52
2022-11-15T11:25:17.100Z,56.05
2022-11-15T11:26:16.999Z,54.78
2022-11-15T11:27:17.041Z,56.37
2022-11-15T11:28:17.030Z,55.04
2022-11-15T11:29:16.995Z,56.99
2022-11-15T11:30:18.098Z,56.90
2022-11-15T11:31:17.020Z,58.38
2022-11-15T11:32:17.073Z,54.98
2022-11-15T11:33:17.023Z,57.58
2022-11-15T11:34:17.044Z,57.06
2022-11-15T11:35:17.139Z,55.00
2022-11-15T11:38:25.832Z,54.88
2022-11-15T11:39:25.861Z,57.34
2022-11-15T11:40:25.872Z,55.80
2022-11-15T11:41:25.698Z,54.99
2022-11-15T11:42:25.640Z,54.25
2022-11-15T11:43:25.616Z,56.65
2022-11-15T11:44:25.620Z,56.99
2022-11-15T11:45:25.653Z,54.69
2022-11-15T11:46:25.628Z,56.35
2022-11-15T11:47:25.747Z,57.23
2022-11-15T11:48:25.700Z,56.25
2022-11-15T11:49:25.575Z,56.64
2022-11-15T11:50:25.734Z,57.12
2022-11-15T11:51:25.671Z,54.87
2022-11-15T11:52:25.649Z,55.90
2022-11-15T11:53:25.703Z,55.08
2022-11-15T11:54:25.745Z,55.49
2022-11-15T11:55:25.669Z,57.95
2022-11-15T11:56:25.738Z,56.58
2022-11-15T11:57:25.630Z,55.30
2022-11-15T11:58:25.625Z,55.82
2022-11-15T11:59:25.749Z,56.09
2022-11-15T12:00:25.618Z,56.89
2022-11-15T12:01:25.699Z,55.96
2022-11-15T12:02:25.576Z,56.80
2022-11-15T12:03:25.678Z,55.25
2022-11-15T12:04:25.607Z,55.70
2022-11-15T12:05:25.669Z,56.96
2022-11-15T12:06:25.588Z,57.92
2022-11-15T12:07:25.852Z,64.62
2022-11-15T12:08:25.591Z,56.76
2022-11-15T12:09:25.495Z,58.45
2022-11-15T12:10:25.619Z,57.84
2022-11-15T12:11:25.506Z,61.87
2022-11-15T12:12:25.784Z,57.16
2022-11-15T12:13:25.449Z,56.03
2022-11-15T12:14:25.608Z,56.68
2022-11-15T12:15:25.419Z,56.78
2022-11-15T12:16:25.478Z,57.85
2022-11-15T12:17:25.379Z,57.95
2022-11-15T12:18:25.535Z,61.73
2022-11-15T12:19:25.620Z,57.11
2022-11-15T12:20:25.469Z,54.45
2022-11-15T12:21:28.511Z,57.03
2022-11-15T12:22:26.413Z,54.44
2022-11-15T12:23:25.730Z,57.81
2022-11-15T12:24:25.782Z,58.18
2022-11-15T12:25:25.415Z,55.21
2022-11-15T12:26:25.443Z,56.78
2022-11-15T12:27:26.848Z,56.11
2022-11-15T12:28:26.490Z,55.77
2022-11-15T12:29:25.651Z,61.61
2022-11-15T12:30:25.407Z,58.85
2022-11-15T12:31:25.407Z,56.65
2022-11-15T12:32:25.413Z,57.07
2022-11-15T12:33:25.333Z,56.30
2022-11-15T12:34:25.436Z,57.54
2022-11-15T12:35:25.440Z,58.99
2022-11-15T12:36:25.400Z,57.72
2022-11-15T12:37:25.322Z,54.56
2022-11-15T12:38:25.676Z,56.04
2022-11-15T12:39:25.298Z,56.61
2022-11-15T12:40:25.224Z,55.72
2022-11-15T12:41:25.319Z,56.80
2022-11-15T12:42:25.214Z,56.03
2022-11-15T12:43:25.187Z,53.89
2022-11-15T12:44:25.215Z,54.99
2022-11-15T12:45:25.242Z,55.02
2022-11-15T12:46:25.280Z,56.44
2022-11-15T12:47:25.267Z,57.30
2022-11-15T12:48:25.281Z,56.36
2022-11-15T12:49:25.288Z,56.27
2022-11-15T12:50:25.356Z,55.86
2022-11-15T12:51:25.253Z,57.11
2022-11-15T12:52:25.252Z,58.27
2022-11-15T12:53:25.180Z,56.80
2022-11-15T12:54:25.232Z,57.70
2022-11-15T12:55:25.188Z,53.51
2022-11-15T12:56:26.292Z,57.19
2022-11-15T12:57:25.185Z,56.94
2022-11-15T12:58:25.135Z,55.57
2022-11-15T12:59:25.174Z,55.46
2022-11-15T13:00:25.500Z,54.79
2022-11-15T13:01:26.171Z,56.23
2022-11-15T13:02:25.073Z,56.41
2022-11-15T13:03:25.138Z,57.29
2022-11-15T13:04:25.069Z,55.40
2022-11-15T13:05:25.180Z,55.81
2022-11-15T13:06:25.067Z,55.23
2022-11-15T13:07:25.264Z,53.96
2022-11-15T13:08:25.046Z,55.12
2022-11-15T13:09:25.081Z,53.15
2022-11-15T13:10:27.946Z,56.34
2022-11-15T13:11:26.136Z,55.94
2022-11-15T13:12:25.720Z,52.98